Tiempo atmosférico en la estación meteorológica de Málaga, Puerto, Málaga (20 m.)



Fecha
DESCASC
Temp. máxima en grados centígrados (hora)
DESCASC
Temp. mínima en grados centígrados (hora)
DESCASC
Temp. media en grados centígrados
DESCASC
Racha de viento máxima en m/sg (hora)
DESCASC
Velocidad máxima media en intervalos de 10 minutos(hora)
DESCASC
Precipitaciones diarias en mm
DESCASC
Precipitaciones de 00:00 a 06:00 en mm
DESCASC
Precipitaciones de 06:00 a 12:00 en mm
DESCASC
Precipitaciones de 12:00 a 18:00 en mm
DESCASC
Precipitaciones de 18:00 a 24:00 en mm
DESCASC
20-10-2019 22.4 (18:00) 15.6 (08:00) 19 11.39 (04:50) 7.22 (15:10) 5.1 4 1.1 0 0
19-10-2019 24.9 (11:50) 19 (08:40) 21.9 11.39 (16:00) 7.22 (15:00) 0 0 0 0 0
18-10-2019 26.5 (12:00) 18 (08:20) 22.3 7.78 (13:10) 5 (16:20) 0 0 0 0 0
17-10-2019 29.4 (16:50) 16 (00:00) 22.7 10 (15:20) 4.72 (15:30) 0 0 0 0 0
16-10-2019 24.3 (12:30) 15.2 (00:00) 19.7 5.28 (00:20) 3.33 (16:20) 0 0 0 0 0
15-10-2019 24.6 (15:10) 16.1 (00:00) 20.4 10 (13:00) 5.56 (15:40) 0 0 0 0 0
14-10-2019 26.2 (11:10) 20.1 (00:00) 23.2 14.72 (15:50) 10.83 (15:50) 0.2 0.1 0.1 0 0
13-10-2019 25.5 (11:50) 19.4 (00:00) 22.4 4.17 (15:00) 2.78 (15:00) 0 0 0 0 0
12-10-2019 25.5 (13:50) 20.8 (00:00) 23.1 4.44 (14:00) 2.78 (08:50) 0 0 0 0 0
11-10-2019 27.1 (12:10) 21.4 (00:00) 24.3 4.72 (13:20) 2.78 (01:20) 0 0 0 0 0
10-10-2019 26.8 (14:30) 19 (00:00) 22.9 7.22 (19:00) 3.89 (19:40) 0 0 0 0 0
09-10-2019 25.9 (10:50) 19.4 (00:00) 22.6 4.72 (07:30) 3.06 (07:40) 0 0 0 0 0
08-10-2019 26 (10:20) 20.2 (00:00) 23.1 6.39 (12:20) 4.44 (12:30) 0 0 0 0 0
07-10-2019 27.6 (11:30) 19.2 (00:00) 23.4 5 (01:50) 3.33 (18:20) 0 0 0 0 0
06-10-2019 26.2 (10:40) 18.6 (00:00) 22.4 4.17 (19:10) 3.06 (17:30) 0 0 0 0 0
05-10-2019 25.4 (16:30) 18.4 (00:00) 21.9 4.17 (10:00) 3.06 (10:10) 0 0 0 0 0
04-10-2019 27.5 (11:20) 20.1 (00:00) 23.8 6.39 (00:50) 3.89 (01:00) 0 0 0 0 0
03-10-2019 31.6 (14:40) 20.9 (00:00) 26.3 9.72 (14:50) 4.44 (15:00) 0 0 0 0 0
02-10-2019 31.4 (15:30) 22.2 (00:00) 26.8 11.39 (14:30) 6.11 (14:30) 0 0 0 0 0
01-10-2019 34 (15:30) 20 (00:00) 27 11.39 (23:40) 5.83 (23:30) 0 0 0 0 0
30-09-2019 25.7 (10:00) 19.9 (00:00) 22.8 3.89 (16:50) 2.5 (16:30) 0 0 0 0 0
29-09-2019 26.9 (12:20) 19.7 (00:00) 23.3 4.72 (06:10) 3.33 (06:10) 0 0 0 0 0
28-09-2019 24 (12:50) 19.1 (00:00) 21.6 3.61 (15:10) 2.5 (15:20) 0 0 0 0 0
27-09-2019 25.5 (10:10) 20.2 (00:00) 22.9 6.94 (16:30) 3.06 (11:00) 0 0 0 0 0
26-09-2019 28.7 (10:40) 19.9 (00:00) 24.3 10.28 (01:50) 5.56 (01:50) 0 0 0 0 0
25-09-2019 34.5 (15:50) 23 (00:00) 28.8 9.72 (03:50) 5.28 (03:50) 0 0 0 0 0
24-09-2019 26.6 (11:40) 19.6 (00:00) 23.1 5.83 (11:50) 3.61 (11:50) 0 0 0 0 0
23-09-2019 27.9 (12:10) 20.1 (00:00) 24 7.5 (05:00) 4.17 (06:00) 0 0 0 0 0
22-09-2019 27.9 (19:40) 20.6 (00:00) 24.3 10.56 (14:00) 8.06 (14:00) 0 0 0 0 0

Gráficas

Temp. máximas Temp. mínimas Temp. medias Precipitaciones Rachas de viento máximas Velocidades máximas media en intervalos de 10 minutos

Datos horarios

Fecha y hora oficial Temperatura (ºC) Velocidad del viento (km/h) Dirección del viento Racha (km/h) Dirección de racha Precipitación (mm) Presión (hPa) Tendencia (hPa) Humedad (%)
2019-10-21 23:00:00 16.7 6 Norte 9 Norte 0 1012.7 0.5 58
2019-10-21 22:00:00 17.3 3 Sudeste 8 Sudeste 0 1012.7 0.5 61
2019-10-21 21:00:00 17.1 3 Norte 8 Noroeste 0 1012.4 0.2 60
2019-10-21 20:00:00 17.3 0 Calma 11 Este 0 1012.2 -0.1 61
2019-10-21 19:00:00 17.5 9 Este 13 Este 0 1012.2 -0.3 61
2019-10-21 18:00:00 18.3 6 Sur 13 Sur 0 1012.2 -0.7 56
2019-10-21 17:00:00 19.7 7 Sur 16 Sur 0 1012.3 -0.9 52
2019-10-21 16:00:00 19.1 10 Sudeste 15 Sur 0 1012.5 -1.3 55
2019-10-21 15:00:00 19.6 10 Sur 16 Sur 0 1012.9 -1 54
2019-10-21 14:00:00 20.2 9 Sur 13 Sur 0 1013.2 -0.5 43
2019-10-21 13:00:00 20.1 10 Este 13 Este 0 1013.8 0.3 40
2019-10-21 12:00:00 20.4 6 Sudoeste 14 Sudoeste 0 1013.9 0.3 42
2019-10-21 11:00:00 19.9 3 Oeste 14 Oeste 0 1013.7 0.3 46
2019-10-21 10:00:00 16.6 6 Noroeste 15 Oeste 0 1013.5 0.2 53
2019-10-21 09:00:00 14.9 7 Norte 15 Noroeste 0 1013.6 0.7 57
2019-10-21 08:00:00 14.4 8 Noroeste 13 Noroeste 0 1013.4 0.8 59
2019-10-21 07:00:00 14.4 9 Noroeste 20 Oeste 0 1013.3 0.3 59
2019-10-21 06:00:00 14.7 8 Oeste 18 Oeste 0 1012.9 -0.3 58
2019-10-21 05:00:00 15.1 8 Noroeste 15 Oeste 0 1012.6 -0.3 56
2019-10-21 04:00:00 15.8 5 Oeste 18 Oeste 0 1013 0.3 54
2019-10-21 03:00:00 16.2 7 Oeste 16 Noroeste 0 1013.2 0.1 52
2019-10-21 02:00:00 16.7 8 Oeste 17 Oeste 0 1012.9 0.1 49
2019-10-21 01:00:00 17.1 7 Oeste 15 Oeste 0 1012.7 0.6 49
2019-10-21 00:00:00 17.2 4 Oeste 15 Noroeste 0 1013.1 1.5 47
2019-10-20 23:00:00 17.6 4 Norte 12 Nordeste 0 1012.8 1.7 45
2019-10-20 22:00:00 18.4 5 Norte 14 Noroeste 0 1012.1 1.8 41
2019-10-20 21:00:00 19 6 Oeste 14 Noroeste 0 1011.6 1.6 37
2019-10-20 20:00:00 19.7 9 Noroeste 22 Noroeste 0 1011.1 1.2 36
2019-10-20 19:00:00 20.7 11 Noroeste 27 Noroeste 0 1010.3 0.5 32
2019-10-20 18:00:00 21.8 7 Noroeste 26 Sudoeste 0 1010 0.2 32
2019-10-20 17:00:00 19.3 15 Sudoeste 31 Sudoeste 0 1009.9 -0.4 53
2019-10-20 16:00:00 19.2 17 Sudoeste 35 Sudoeste 0 1009.8 -0.4 58
2019-10-20 15:00:00 18.6 24 Sudoeste 31 Sudoeste 0 1009.8 -0.3 57
2019-10-20 14:00:00 18.1 18 Sudoeste 26 Sudoeste 0 1010.3 0.4 53
2019-10-20 13:00:00 19.7 12 Sudoeste 22 Noroeste 0 1010.2 0.7 44
2019-10-20 12:00:00 19.4 9 Noroeste 23 Noroeste 0 1010.1 1.6 43
2019-10-20 11:00:00 18.2 8 Noroeste 19 Oeste 0 1009.9 1.4 50
2019-10-20 10:00:00 16.8 7 Noroeste 17 Noroeste 0 1009.5 1.5 58
2019-10-20 09:00:00 16.4 6 Noroeste 17 Oeste 0 1008.5 1.9 61
2019-10-20 08:00:00 15.8 7 Noroeste 24 Noroeste 1.1 1008.5 1.8 68
2019-10-20 07:00:00 17.3 8 Oeste 22 Oeste 0 1008 1.9 52
2019-10-20 06:00:00 18.1 8 Oeste 30 Noroeste 0 1006.6 -0.2 50
2019-10-20 05:00:00 17.9 19 Noroeste 41 Noroeste 0.1 1006.7 1.2 53
2019-10-20 04:00:00 17.5 10 Noroeste 20 Norte 1.4 1006.1 -0.2 70
2019-10-20 03:00:00 16.6 11 Noroeste 28 Noroeste 2.1 1006.8 0.5 76
2019-10-20 02:00:00 19.1 12 Sudoeste 31 Sudoeste 0 1005.5 -0.5 88
2019-10-20 01:00:00 20.2 23 Sudoeste 35 Sudoeste 0.4 1006.3 0.5 81
2019-10-20 00:00:00 20.7 17 Sudoeste 31 Sudoeste 0 1006.3 0.4 71
2019-10-19 23:00:00 21.6 3 Este 17 Sur 0 1006 0.3 64
2019-10-19 22:00:00 21.4 13 Sudoeste 28 Sudoeste 0 1005.8 0.5 65
2019-10-19 21:00:00 21.8 3 Sur 29 Sudoeste 0 1005.9 0.3 64
2019-10-19 20:00:00 22.8 17 Sudoeste 25 Sudoeste 0 1005.7 -0.2 58
2019-10-19 19:00:00 23.1 0 Calma 29 Sudoeste 0 1005.3 -1.2 63
2019-10-19 18:00:00 21.4 22 Sudoeste 38 Sudoeste 0 1005.6 -1.5 64
2019-10-19 17:00:00 21.9 13 Sudoeste 37 Sudoeste 0 1005.9 -2.1 64
2019-10-19 16:00:00 21.5 21 Sudoeste 41 Sudoeste 0 1006.5 -2.1 67
2019-10-19 15:00:00 21.8 26 Sudoeste 37 Sudoeste 0 1007.1 -1.7 63
2019-10-19 14:00:00 21.5 14 Sudoeste 32 Sudoeste 0 1008 -0.9 62
2019-10-19 13:00:00 21.3 17 Sudoeste 30 Sudoeste 0 1008.6 -0.1 60
2019-10-19 12:00:00 24.3 14 Sudoeste 21 Sudoeste 0 1008.8 -0.3 47
2019-10-19 11:00:00 22.8 13 Sudoeste 21 Sudoeste 0 1008.9 -0.3 53
2019-10-19 10:00:00 21.4 8 Oeste 21 Oeste 0 1008.7 -0.3 60
2019-10-19 09:00:00 19.4 12 Oeste 21 Oeste 0 1009.1 0 67
2019-10-19 08:00:00 19.3 6 Oeste 19 Oeste 0 1009.2 0.1 68
2019-10-19 07:00:00 19.5 9 Oeste 17 Oeste 0 1009 -0.7 68
2019-10-19 06:00:00 19.7 8 Oeste 20 Oeste 0 1009.1 -1.1 67
2019-10-19 05:00:00 20.3 12 Oeste 19 Oeste 0 1009.1 -1.3 65
2019-10-19 04:00:00 20.7 6 Noroeste 19 Oeste 0 1009.7 -1.2 65
2019-10-19 03:00:00 20.8 9 Oeste 17 Oeste 0 1010.2 -1.2 64
2019-10-19 02:00:00 21.5 8 Oeste 17 Noroeste 0 1010.4 -1.4 62
2019-10-19 01:00:00 20.6 5 Noroeste 10 Oeste 0 1010.9 -0.8 71
2019-10-19 00:00:00 19.5 5 Noroeste 7 Noroeste 0 1011.4 -0.2 86
2019-10-18 23:00:00 19.4 2 Sudoeste 4 Sudeste 0 1011.8 0.7 86
2019-10-18 22:00:00 19.5 3 Este 14 Este 0 1011.7 0.6 86
2019-10-18 21:00:00 19.6 5 Este 21 Este 0 1011.6 0.3 85
2019-10-18 20:00:00 19.7 9 Este 20 Este 0 1011.1 -0.7 83
2019-10-18 19:00:00 20 10 Este 16 Este 0 1011.1 -1 76
2019-10-18 18:00:00 21.8 10 Este 22 Este 0 1011.3 -1.6 64
2019-10-18 17:00:00 21.5 16 Este 25 Este 0 1011.8 -1.9 61
2019-10-18 16:00:00 21.5 17 Este 23 Este 0 1012.1 -2 59
2019-10-18 15:00:00 22.3 8 Este 21 Este 0 1012.9 -1.3 59
2019-10-18 14:00:00 21.7 10 Este 28 Este 0 1013.7 -0.7 59
2019-10-18 13:00:00 21.2 10 Este 20 Este 0 1014.1 -0.3 61
2019-10-18 12:00:00 26.3 0 Calma 18 Oeste 0 1014.2 -0.3 40
2019-10-18 11:00:00 24.7 0 Calma 14 Sudoeste 0 1014.4 -0.4 41
2019-10-18 10:00:00 21.5 3 Noroeste 10 Noroeste 0 1014.4 -0.1 39
2019-10-18 09:00:00 18.6 6 Noroeste 13 Noroeste 0 1014.5 0 43
2019-10-18 08:00:00 18.2 6 Noroeste 11 Norte 0 1014.8 0.4 43
2019-10-18 07:00:00 18.6 6 Norte 11 Norte 0 1014.5 -0.4 43
2019-10-18 06:00:00 18.5 6 Noroeste 12 Norte 0 1014.5 -0.6 42
2019-10-18 05:00:00 18.6 4 Noroeste 7 Noroeste 0 1014.4 -0.4 43
2019-10-18 04:00:00 19.1 3 Norte 7 Noroeste 0 1014.9 -0.2 42
2019-10-18 03:00:00 19.3 2 Este 9 Este 0 1015.1 0.2 48
2019-10-18 02:00:00 21.2 4 Noroeste 25 Oeste 0 1014.8 0.1 39
2019-10-18 01:00:00 21.5 9 Oeste 19 Oeste 0 1015.1 0.7 38
2019-10-18 00:00:00 19.1 0 Calma 10 Este 0 1014.9 1 65
2019-10-17 23:00:00 19.2 3 Sudeste 9 Sudeste 0 1014.7 1.4 70
2019-10-17 22:00:00 19.4 4 Sudeste 14 Este 0 1014.4 1.6 68
2019-10-17 21:00:00 20.5 8 Este 14 Este 0 1013.9 1.3 56
2019-10-17 20:00:00 21 9 Este 17 Este 0 1013.3 0.6 52
2019-10-17 19:00:00 24.2 8 Este 22 Este 0 1012.8 -0.3 36
2019-10-17 18:00:00 25.1 15 Este 23 Este 0 1012.6 -1.1 31
2019-10-17 17:00:00 27.9 11 Oeste 29 Oeste 0 1012.7 -2 20
2019-10-17 16:00:00 28.7 10 Oeste 36 Sudoeste 0 1013.1 -2.3 21
2019-10-17 15:00:00 27.6 15 Sudoeste 30 Sudoeste 0 1013.7 -2.3 22
2019-10-17 14:00:00 27 12 Oeste 28 Sudoeste 0 1014.7 -1.2 24
2019-10-17 13:00:00 26.2 10 Sudoeste 22 Sudoeste 0 1015.4 -0.4 27
2019-10-17 12:00:00 23.3 12 Sudoeste 23 Oeste 0 1016 0.3 34
2019-10-17 11:00:00 21.4 8 Oeste 20 Oeste 0 1015.9 0.1 34
2019-10-17 10:00:00 19.3 6 Oeste 14 Sudoeste 0 1015.8 0.5 37
2019-10-17 09:00:00 17.3 5 Oeste 10 Oeste 0 1015.7 0.4 40
2019-10-17 08:00:00 16.2 6 Noroeste 12 Noroeste 0 1015.8 0.4 41
2019-10-17 07:00:00 16.2 5 Norte 14 Noroeste 0 1015.3 -0.3 40
2019-10-17 06:00:00 16.5 8 Noroeste 13 Norte 0 1015.3 -0.4 39
2019-10-17 05:00:00 16.8 6 Norte 11 Norte 0 1015.4 -0.1 40
2019-10-17 04:00:00 17 6 Noroeste 13 Noroeste 0 1015.6 0 40
2019-10-17 03:00:00 17.2 4 Noroeste 8 Noroeste 0 1015.7 -0.3 41
2019-10-17 02:00:00 17.2 2 Noroeste 5 Noroeste 0 1015.5 -0.1 45
2019-10-17 01:00:00 17.8 0 Calma 11 Este 0 1015.6 0.3 46
2019-10-17 00:00:00 18.4 0 Calma 10 Oeste 0 1016 1 46
2019-10-16 23:00:00 19.1 4 Noroeste 12 Noroeste 0 1015.6 0.8 43
2019-10-16 22:00:00 19 5 Norte 13 Noroeste 0 1015.3 0.9 44
2019-10-16 21:00:00 19.6 5 Norte 7 Norte 0 1015 0.3 45
2019-10-16 20:00:00 19.3 5 Nordeste 10 Este 0 1014.8 -0.4 50
2019-10-16 19:00:00 20.3 6 Este 18 Sudeste 0 1014.4 -1.2 51
2019-10-16 18:00:00 20.4 7 Este 13 Este 0 1014.7 -1.6 52
2019-10-16 17:00:00 21.2 9 Sur 17 Sur 0 1015.2 -1.8 52
2019-10-16 16:00:00 21.1 9 Sur 15 Sudeste 0 1015.6 -2 52
2019-10-16 15:00:00 22 10 Sur 13 Sur 0 1016.3 -1.5 40
2019-10-16 14:00:00 20.7 8 Sudeste 12 Sur 0 1017 -0.6 39
2019-10-16 13:00:00 23.1 8 Sur 12 Sur 0 1017.6 0.1 29
2019-10-16 12:00:00 22.2 8 Sudoeste 14 Sudoeste 0 1017.8 0.2 32
2019-10-16 11:00:00 20.6 6 Oeste 12 Oeste 0 1017.6 0.2 36
2019-10-16 10:00:00 18.8 4 Noroeste 15 Norte 0 1017.5 0.3 37
2019-10-16 09:00:00 16 8 Noroeste 16 Noroeste 0 1017.6 0.4 41
2019-10-16 08:00:00 15.2 5 Norte 17 Norte 0 1017.4 0.1 42
2019-10-16 07:00:00 15.7 7 Noroeste 16 Noroeste 0 1017.2 -0.3 43
2019-10-16 06:00:00 15.6 8 Noroeste 16 Noroeste 0 1017.2 -0.7 43
2019-10-16 05:00:00 15.8 8 Noroeste 17 Noroeste 0 1017.3 -0.5 42
2019-10-16 04:00:00 16.2 5 Norte 13 Norte 0 1017.5 -0.3 41
2019-10-16 03:00:00 16.3 8 Noroeste 15 Noroeste 0 1017.9 0.3 40
2019-10-16 02:00:00 17.3 10 Noroeste 15 Noroeste 0 1017.8 0.7 38
2019-10-16 01:00:00 18.2 8 Noroeste 19 Oeste 0 1017.8 1.1 36
2019-10-16 00:00:00 18.5 10 Oeste 22 Oeste 0 1017.6 1.4 36
2019-10-15 23:00:00 18.9 9 Oeste 22 Oeste 0 1017.1 1.5 34
2019-10-15 22:00:00 19.8 9 Oeste 19 Oeste 0 1016.7 1.6 33
2019-10-15 21:00:00 20.9 8 Oeste 20 Oeste 0 1016.2 1.3 31
2019-10-15 20:00:00 21.9 13 Oeste 22 Oeste 0 1015.6 0.7 28
2019-10-15 19:00:00 23.3 9 Oeste 29 Oeste 0 1015.1 0.1 26
2019-10-15 18:00:00 24 13 Sudoeste 32 Oeste 0 1014.9 -0.4 26
2019-10-15 17:00:00 24.4 13 Oeste 34 Oeste 0 1014.9 -1.4 26
2019-10-15 16:00:00 23.8 13 Sudoeste 35 Oeste 0 1015 -1.8 26
2019-10-15 15:00:00 24.1 13 Oeste 34 Oeste 0 1015.3 -2 27
2019-10-15 14:00:00 22.9 15 Oeste 34 Oeste 0 1016.3 -0.7 31
2019-10-15 13:00:00 21.5 17 Oeste 36 Oeste 0 1016.8 0.3 31
2019-10-15 12:00:00 20.7 16 Oeste 32 Noroeste 0 1017.3 0.7 32
2019-10-15 11:00:00 19.1 13 Noroeste 35 Noroeste 0 1017 0.7 44
2019-10-15 10:00:00 17.5 17 Oeste 33 Noroeste 0 1016.5 0.3 54
2019-10-15 09:00:00 16.7 10 Oeste 25 Sudoeste 0 1016.6 0.3 58
2019-10-15 08:00:00 16.4 9 Sudoeste 31 Oeste 0 1016.3 -0.1 60
2019-10-15 07:00:00 16.7 17 Oeste 28 Oeste 0 1016.2 -0.1 60
2019-10-15 06:00:00 17.2 12 Oeste 24 Oeste 0 1016.3 0.2 58
2019-10-15 05:00:00 17.8 13 Oeste 25 Oeste 0 1016.4 0.5 57
2019-10-15 04:00:00 18.3 14 Oeste 31 Oeste 0 1016.3 0.5 56
2019-10-15 03:00:00 18.8 15 Noroeste 27 Noroeste 0 1016.1 0.2 56
2019-10-15 02:00:00 19.4 9 Noroeste 26 Noroeste 0 1015.9 0.6 56
2019-10-15 01:00:00 19.3 11 Noroeste 34 Norte 0 1015.8 1.1 57
2019-10-15 00:00:00 20.1 13 Noroeste 38 Noroeste 0 1015.9 1.9 51
2019-10-14 23:00:00 20.9 10 Noroeste 23 Noroeste 0 1015.3 2.3 45
2019-10-14 22:00:00 21.2 11 Noroeste 32 Noroeste 0 1014.7 2.9 40
2019-10-14 21:00:00 22.3 14 Noroeste 34 Oeste 0 1014 2.3 35
2019-10-14 20:00:00 23.2 15 Noroeste 35 Noroeste 0 1013 1.6 38
2019-10-14 19:00:00 25 12 Sudoeste 43 Sudoeste 0 1011.8 0.5 39
2019-10-14 18:00:00 23.5 28 Sudoeste 46 Sudoeste 0 1011.7 0.3 52
2019-10-14 17:00:00 22.9 31 Sudoeste 48 Sudoeste 0 1011.4 -0.8 60
2019-10-14 16:00:00 21.7 33 Sudoeste 53 Sudoeste 0 1011.3 -0.9 69
2019-10-14 15:00:00 22.1 33 Sudoeste 48 Sudoeste 0 1011.4 -0.5 68
2019-10-14 14:00:00 21.4 30 Sudoeste 44 Sudoeste 0 1012.2 0.7 71
2019-10-14 13:00:00 23 24 Sudoeste 33 Sudoeste 0 1012.2 0.7 60
2019-10-14 12:00:00 25 8 Sur 17 Sur 0 1011.9 0.8 53
2019-10-14 11:00:00 25.3 3 Oeste 9 Oeste 0 1011.5 0.5 57
2019-10-14 10:00:00 23.2 2 Noroeste 9 Sur 0 1011.5 0.3 70
2019-10-14 09:00:00 21.3 6 Este 17 Sudeste 0 1011.1 0.2 81
2019-10-14 08:00:00 21.5 5 Este 14 Nordeste 0 1011 0.6 81
2019-10-14 07:00:00 21.2 9 Nordeste 16 Este 0.1 1011.2 1.2 83
2019-10-14 06:00:00 21.2 5 Sudoeste 10 Sudoeste 0.1 1010.9 -0.1 83
2019-10-14 05:00:00 21.6 5 Sudoeste 14 Sudoeste 0 1010.4 -0.8 80
2019-10-14 04:00:00 21.5 5 Norte 9 Nordeste 0 1010 -1.7 80
2019-10-14 03:00:00 21.8 0 Calma 13 Este 0 1011 -1 82
2019-10-14 02:00:00 21.8 2 Sudoeste 5 Sudoeste 0 1011.2 -0.1 84
2019-10-14 01:00:00 21.7 2 Oeste 7 Sur 0 1011.7 0.4 86
2019-10-14 00:00:00 21.7 4 Sur 12 Sur 0 1012 1.2 86
2019-10-13 23:00:00 21.6 3 Este 9 Sudeste 0 1011.3 1.1 86
2019-10-13 22:00:00 21.6 3 Sur 9 Sur 0 1011.3 0.6 86
2019-10-13 21:00:00 21.8 4 Sudeste 10 Este 0 1010.8 -0.1 86
2019-10-13 20:00:00 22.1 9 Este 14 Este 0 1010.2 -0.9 81
2019-10-13 19:00:00 23.2 4 Sur 11 Este 0 1010.7 -0.6 72
2019-10-13 18:00:00 23.4 8 Sudeste 11 Sur 0 1010.9 -1 69
2019-10-13 17:00:00 24.4 4 Sur 12 Sudeste 0 1011.1 -1.7 66
2019-10-13 16:00:00 23.5 8 Sudeste 14 Sudeste 0 1011.3 -2.1 69
2019-10-13 15:00:00 23.5 10 Sudeste 15 Sudeste 0 1011.9 -1.5 69
2019-10-13 14:00:00 23.4 7 Sudeste 15 Sur 0 1012.8 -0.2 67
2019-10-13 13:00:00 23.9 6 Sudeste 11 Sudeste 0 1013.4 0.9 68
2019-10-13 12:00:00 24.2 5 Sudeste 13 Este 0 1013.4 0.7 59
2019-10-13 11:00:00 24.6 3 Sur 8 Oeste 0 1013 0.4 58
2019-10-13 10:00:00 21.9 4 Noroeste 11 Noroeste 0 1012.5 0.2 68
2019-10-13 09:00:00 19.8 5 Norte 14 Noroeste 0 1012.7 0.6 76
2019-10-13 08:00:00 19.5 5 Norte 13 Noroeste 0 1012.6 0.5 76
2019-10-13 07:00:00 19.6 8 Noroeste 14 Noroeste 0 1012.3 -0.1 76
2019-10-13 06:00:00 19.9 5 Norte 14 Noroeste 0 1012.1 -0.9 76
2019-10-13 05:00:00 19.9 5 Noroeste 12 Noroeste 0 1012.1 -1 75
2019-10-13 04:00:00 20.5 4 Noroeste 13 Noroeste 0 1012.4 -0.9 76
2019-10-13 03:00:00 20.5 6 Norte 13 Norte 0 1013 -0.4 76
2019-10-13 02:00:00 20.8 7 Norte 12 Nordeste 0 1013.1 -0.1 77
2019-10-13 01:00:00 20.8 3 Norte 6 Este 0 1013.3 0.7 81
2019-10-13 00:00:00 21.5 0 Calma 4 Sudeste 0 1013.4 0.8 81
2019-10-12 23:00:00 21.9 3 Sudoeste 5 Noroeste 0 1013.2 1 78
2019-10-12 22:00:00 22.1 0 Calma 3 Este 0 1012.6 0.7 77
2019-10-12 21:00:00 22.1 0 Calma 8 Este 0 1012.6 0.7 76
2019-10-12 20:00:00 22.5 0 Calma 6 Sur 0 1012.2 0.2 73
2019-10-12 19:00:00 23.2 5 Sur 10 Sudeste 0 1011.9 -0.3 68
2019-10-12 18:00:00 24.3 5 Sudeste 13 Sudeste 0 1011.9 -0.8 64
2019-10-12 17:00:00 24.5 6 Sudeste 14 Sur 0 1012 -1.3 60
2019-10-12 16:00:00 23.8 7 Sudeste 10 Sudeste 0 1012.2 -1.7 59
2019-10-12 15:00:00 24.6 8 Sur 13 Sur 0 1012.7 -1.5 64
2019-10-12 14:00:00 24.9 6 Sudeste 16 Sudeste 0 1013.3 -0.9 62
2019-10-12 13:00:00 24.2 6 Sudeste 10 Sur 0 1013.9 0.2 65
2019-10-12 12:00:00 24.4 5 Este 9 Este 0 1014.2 1.4 68
2019-10-12 11:00:00 22.8 3 Sur 9 Norte 0 1014.2 1.4 69
2019-10-12 10:00:00 22.9 0 Calma 14 Sudoeste 0 1013.7 0.9 69
2019-10-12 09:00:00 21.7 6 Norte 14 Nordeste 0 1012.8 -0.1 71
2019-10-12 08:00:00 21 6 Noroeste 15 Sudoeste 0 1012.8 0 75
2019-10-12 07:00:00 21.2 5 Norte 14 Noroeste 0 1012.8 -0.7 70
2019-10-12 06:00:00 21 6 Noroeste 11 Noroeste 0 1012.9 -1.5 75
2019-10-12 05:00:00 21.6 3 Norte 12 Noroeste 0 1012.8 -1.9 70
2019-10-12 04:00:00 21.7 5 Norte 13 Norte 0 1013.5 -1.4 69
2019-10-12 03:00:00 21.7 8 Noroeste 13 Noroeste 0 1014.4 -0.7 69
2019-10-12 02:00:00 21.9 5 Noroeste 10 Noroeste 0 1014.7 -0.4 68
2019-10-12 01:00:00 22 5 Norte 12 Nordeste 0 1014.9 0 69
2019-10-12 00:00:00 22.1 4 Nordeste 9 Nordeste 0 1015.1 0.9 71
2019-10-11 23:00:00 22.1 4 Nordeste 7 Sudeste 0 1015.1 1.4 72
2019-10-11 22:00:00 22.4 3 Sudeste 8 Nordeste 0 1014.9 1 70
2019-10-11 21:00:00 22.4 5 Este 10 Este 0 1014.2 0 69
2019-10-11 20:00:00 22.6 4 Sudeste 8 Este 0 1013.7 -0.8 66
2019-10-11 19:00:00 23.4 4 Este 10 Nordeste 0 1013.9 -1.2 62
2019-10-11 18:00:00 23.9 6 Este 10 Nordeste 0 1014.2 -1.3 60
2019-10-11 17:00:00 24.7 6 Este 12 Este 0 1014.5 -1.7 56
2019-10-11 16:00:00 25 5 Este 10 Sur 0 1015.1 -1.7 52
2019-10-11 15:00:00 24.8 6 Sudeste 14 Sur 0 1015.5 -1.4 51
2019-10-11 14:00:00 25.5 8 Sudeste 17 Sudoeste 0 1016.2 -1.2 51
2019-10-11 13:00:00 25.2 6 Sudeste 12 Sudeste 0 1016.8 0.1 52
2019-10-11 12:00:00 25.6 2 Sudeste 8 Sudeste 0 1016.9 0.6 53
2019-10-11 11:00:00 24.3 3 Sur 8 Nordeste 0 1017.4 1.3 60
2019-10-11 10:00:00 22.4 4 Norte 10 Norte 0 1016.7 0.9 72
2019-10-11 09:00:00 22 0 Calma 5 Nordeste 0 1016.3 0.8 76
2019-10-11 08:00:00 21.6 2 Sur 9 Sudoeste 0 1016.1 0.4 79
2019-10-11 07:00:00 21.9 4 Sudeste 10 Sudeste 0 1015.8 -0.1 77
2019-10-11 06:00:00 21.6 5 Sudeste 10 Este 0 1015.5 -0.7 80
2019-10-11 05:00:00 21.6 5 Sur 10 Sudeste 0 1015.7 -0.7 84
2019-10-11 04:00:00 21.8 7 Sudeste 14 Sudeste 0 1015.9 -0.6 84
2019-10-11 03:00:00 21.7 10 Sudeste 14 Sudeste 0 1016.2 -0.4 84
2019-10-11 02:00:00 22 9 Sudeste 14 Este 0 1016.4 0.2 84
2019-10-11 01:00:00 21.8 9 Sudeste 15 Sudeste 0 1016.5 0.6 83
2019-10-11 00:00:00 22.2 9 Sudeste 19 Sudeste 0 1016.6 1.3 81
2019-10-10 23:00:00 22 6 Sudeste 14 Sudeste 0 1016.2 1.4 81
2019-10-10 22:00:00 22.1 8 Sudeste 16 Sudeste 0 1015.9 1.3 80
2019-10-10 21:00:00 22.1 9 Sudeste 22 Sudeste 0 1015.3 0.6 78
2019-10-10 20:00:00 22.3 13 Sudeste 23 Este 0 1014.8 0.1 76
2019-10-10 19:00:00 22.4 13 Sudeste 26 Este 0 1014.6 -0.5 73
2019-10-10 18:00:00 23.1 11 Este 18 Este 0 1014.7 -0.7 70
2019-10-10 17:00:00 23.3 9 Este 14 Sudeste 0 1014.7 -1.3 64
2019-10-10 16:00:00 24.1 6 Sudeste 12 Sudeste 0 1015.1 -1.5 61
2019-10-10 15:00:00 25 8 Sudeste 16 Este 0 1015.4 -1.4 57
2019-10-10 14:00:00 26.3 5 Este 19 Nordeste 0 1016 -0.7 54
2019-10-10 13:00:00 25.7 4 Este 19 Sudeste 0 1016.6 0.2 55
2019-10-10 12:00:00 24.9 6 Este 22 Este 0 1016.8 1.1 57
2019-10-10 11:00:00 23.6 4 Sudeste 11 Sur 0 1016.7 1.6 58
2019-10-10 10:00:00 21.4 4 Noroeste 10 Noroeste 0 1016.4 1.5 59
2019-10-10 09:00:00 19.8 6 Noroeste 13 Noroeste 0 1015.7 1.3 60
2019-10-10 08:00:00 19.5 8 Noroeste 15 Norte 0 1015.1 0.9 60
2019-10-10 07:00:00 19.5 10 Noroeste 15 Noroeste 0 1014.9 0.9 60
2019-10-10 06:00:00 19.6 7 Norte 13 Noroeste 0 1014.4 0.4 60
2019-10-10 05:00:00 19.8 6 Noroeste 11 Noroeste 0 1014.2 0.5 60
2019-10-10 04:00:00 19.8 5 Noroeste 10 Norte 0 1014 0.3 60
2019-10-10 03:00:00 20.2 4 Noroeste 9 Noroeste 0 1014 0.6 64
2019-10-10 02:00:00 20.4 4 Noroeste 9 Noroeste 0 1013.7 0.4 67
2019-10-10 01:00:00 19.8 3 Noroeste 8 Noroeste 0 1013.7 0.9 74
2019-10-10 00:00:00 20.9 0 Calma 4 Este 0 1013.4 1 87
2019-10-09 23:00:00 21.2 0 Calma 5 Sudeste 0 1013.3 1.4 85
2019-10-09 22:00:00 21.2 2 Este 9 Sudeste 0 1012.8 1 84
2019-10-09 21:00:00 21.3 5 Sudeste 7 Sur 0 1012.4 0.6 82
2019-10-09 20:00:00 21.8 5 Sudeste 8 Sudeste 0 1011.9 0.1 77
2019-10-09 19:00:00 22.9 5 Sudeste 11 Sudeste 0 1011.8 -0.2 68
2019-10-09 18:00:00 24.1 6 Sur 12 Sur 0 1011.8 -0.5 62
2019-10-09 17:00:00 24.4 7 Sur 11 Sudeste 0 1011.8 -1.1 57
2019-10-09 16:00:00 22.7 9 Sudeste 12 Sudeste 0 1012 -1.6 62
2019-10-09 15:00:00 22.9 8 Sudeste 12 Sur 0 1012.3 -1.6 59
2019-10-09 14:00:00 23.7 9 Sudeste 13 Sudeste 0 1012.9 -0.7 60
2019-10-09 13:00:00 24 6 Sudeste 10 Sudeste 0 1013.6 0.4 54
2019-10-09 12:00:00 25.1 5 Sur 8 Sudeste 0 1013.9 0.7 47
2019-10-09 11:00:00 25.7 3 Sur 9 Noroeste 0 1013.6 0.2 44
2019-10-09 10:00:00 21.9 6 Noroeste 15 Noroeste 0 1013.2 0.1 60
2019-10-09 09:00:00 20 9 Noroeste 16 Noroeste 0 1013.2 0.4 67
2019-10-09 08:00:00 19.5 7 Noroeste 17 Noroeste 0 1013.4 0.4 68
2019-10-09 07:00:00 19.7 7 Noroeste 12 Norte 0 1013.1 0 68
2019-10-09 06:00:00 19.7 8 Norte 15 Norte 0 1012.8 -0.8 69
2019-10-09 05:00:00 19.8 9 Noroeste 13 Noroeste 0 1013 -1 70
2019-10-09 04:00:00 20.1 9 Noroeste 14 Noroeste 0 1013.1 -1.2 68
2019-10-09 03:00:00 20.6 6 Norte 16 Norte 0 1013.6 -1 68
2019-10-09 02:00:00 20.7 7 Noroeste 14 Noroeste 0 1014 -0.5 68
2019-10-09 01:00:00 21.2 3 Norte 12 Noroeste 0 1014.3 0.3 66
2019-10-09 00:00:00 21.8 5 Norte 9 Norte 0 1014.6 0.9 65
2019-10-08 23:00:00 22.1 4 Norte 9 Nordeste 0 1014.5 1 64
2019-10-08 22:00:00 22.2 4 Sudeste 13 Este 0 1014 0.6 64
2019-10-08 21:00:00 22.2 6 Este 17 Sudeste 0 1013.7 -0.1 68
2019-10-08 20:00:00 22.4 11 Sudeste 18 Sudeste 0 1013.5 -0.5 67
2019-10-08 19:00:00 23.2 5 Sudeste 15 Sudeste 0 1013.4 -1.4 70
2019-10-08 18:00:00 22.9 9 Sudeste 15 Sudeste 0 1013.8 -1 70
2019-10-08 17:00:00 23.1 9 Este 13 Este 0 1014 -1.5 69
2019-10-08 16:00:00 23.3 8 Sudeste 12 Sudeste 0 1014.8 -1.2 69
2019-10-08 15:00:00 24.4 8 Sudeste 16 Sudeste 0 1014.8 -1.1 67
2019-10-08 14:00:00 24.4 8 Sudeste 19 Sudeste 0 1015.5 -0.2 68
2019-10-08 13:00:00 24.2 12 Sudeste 23 Sudeste 0 1016 0.3 59
2019-10-08 12:00:00 24.1 12 Sudeste 19 Sudeste 0 1015.9 0.6 59
2019-10-08 11:00:00 24.2 9 Sudeste 15 Sudeste 0 1015.7 0.7 59
2019-10-08 10:00:00 23.7 3 Noroeste 17 Noroeste 0 1015.7 1.3 48
2019-10-08 09:00:00 20.9 8 Noroeste 14 Noroeste 0 1015.3 1.2 50
2019-10-08 08:00:00 20.3 8 Noroeste 14 Noroeste 0 1015 1.3 51
2019-10-08 07:00:00 20.4 8 Norte 12 Norte 0 1014.4 0.7 52
2019-10-08 06:00:00 20.7 6 Norte 11 Norte 0 1014.1 0.4 52
2019-10-08 05:00:00 21.1 5 Norte 12 Norte 0 1013.7 0.3 53
2019-10-08 04:00:00 23 6 Sudeste 16 Este 0 1013.7 0.6 55
2019-10-08 03:00:00 22.5 6 Nordeste 22 Nordeste 0 1013.7 1.2 61
2019-10-08 02:00:00 22 4 Sudeste 13 Este 0 1013.4 1.1 75
2019-10-08 01:00:00 21.1 9 Este 11 Este 0 1013.1 1 68
2019-10-08 00:00:00 21.4 0 Calma 5 Norte 0 1012.5 0.9 67
2019-10-07 23:00:00 21.7 0 Calma 3 Sur 0 1012.3 1.1 79
2019-10-07 22:00:00 21.9 0 Calma 9 Este 0 1012.1 1.1 79
2019-10-07 21:00:00 22.3 2 Sudeste 8 Sudeste 0 1011.6 0.6 79
2019-10-07 20:00:00 22.6 0 Calma 9 Este 0 1011.2 0.1 67
2019-10-07 19:00:00 23.7 6 Este 18 Este 0 1011 -0.3 63
2019-10-07 18:00:00 24 9 Este 15 Este 0 1011 -0.4 58
2019-10-07 17:00:00 23 9 Este 13 Este 0 1011.1 -0.9 74
2019-10-07 16:00:00 23.3 9 Este 16 Este 0 1011.3 -0.7 72
2019-10-07 15:00:00 23.8 9 Este 13 Este 0 1011.4 -0.9 64
2019-10-07 14:00:00 25.5 6 Sudeste 10 Sur 0 1012 -0.1 47
2019-10-07 13:00:00 24.4 5 Este 10 Sudeste 0 1012 -0.2 49
2019-10-07 12:00:00 23.8 6 Sudeste 11 Sudeste 0 1012.3 0 51
2019-10-07 11:00:00 25.9 4 Noroeste 9 Noroeste 0 1012.1 -0.1 41
2019-10-07 10:00:00 23.2 2 Sudeste 5 Nordeste 0 1012.2 0.2 51
2019-10-07 09:00:00 21.4 0 Calma 10 Noroeste 0 1012.3 0.4 50
2019-10-07 08:00:00 19.6 3 Noroeste 9 Noroeste 0 1012.2 0.1 59
2019-10-07 07:00:00 20.1 0 Calma 8 Este 0 1012 -0.5 66
2019-10-07 06:00:00 19.2 7 Este 10 Este 0 1011.9 -0.9 68
2019-10-07 05:00:00 19.7 2 Sudeste 11 Este 0 1012.1 -1.1 71
2019-10-07 04:00:00 20.4 10 Este 15 Este 0 1012.5 -1.3 63
2019-10-07 03:00:00 21.2 5 Este 14 Sudoeste 0 1012.8 -1.2 54
2019-10-07 02:00:00 20.3 9 Noroeste 18 Noroeste 0 1013.2 -0.7 60
2019-10-07 01:00:00 20.3 5 Noroeste 9 Norte 0 1013.8 0.3 60
2019-10-07 00:00:00 20.6 0 Calma 8 Norte 0 1014 0.9 63
2019-10-06 23:00:00 20.6 0 Calma 3 Nordeste 0 1013.9 1 80
2019-10-06 22:00:00 21.6 3 Sudeste 5 Sudeste 0 1013.5 0.8 74
2019-10-06 21:00:00 21.7 3 Este 13 Este 0 1013.1 0.6 64
2019-10-06 20:00:00 21.7 7 Este 15 Este 0 1012.9 0 67
2019-10-06 19:00:00 22.4 9 Sudeste 14 Sudeste 0 1012.7 -0.7 59
2019-10-06 18:00:00 25.6 4 Este 14 Este 0 1012.5 -1 49
2019-10-06 17:00:00 22.6 6 Este 11 Este 0 1012.9 -1.2 67
2019-10-06 16:00:00 21.9 5 Sudeste 10 Sudeste 0 1013.4 -1.1 74
2019-10-06 15:00:00 23.4 5 Sur 10 Sur 0 1013.5 -0.8 69
2019-10-06 14:00:00 23.2 6 Sur 10 Sudeste 0 1014.1 0.4 66
2019-10-06 13:00:00 23 6 Sudeste 10 Sudeste 0 1014.5 1.4 64
2019-10-06 12:00:00 22.9 7 Sudeste 14 Nordeste 0 1014.3 1 54
2019-10-06 11:00:00 23.4 4 Este 9 Sur 0 1013.7 0.2 45
2019-10-06 10:00:00 23.1 3 Norte 10 Noroeste 0 1013.1 0.2 40
2019-10-06 09:00:00 20.8 2 Norte 8 Norte 0 1013.3 0.5 46
2019-10-06 08:00:00 19.4 6 Noroeste 14 Noroeste 0 1013.5 1.2 49
2019-10-06 07:00:00 19.9 3 Noroeste 8 Noroeste 0 1012.9 0.5 49
2019-10-06 06:00:00 19.8 5 Noroeste 14 Norte 0 1012.8 0.4 48
2019-10-06 05:00:00 20.1 3 Noroeste 8 Norte 0 1012.3 0.2 47
2019-10-06 04:00:00 20.7 2 Norte 11 Noroeste 0 1012.4 0.4 48
2019-10-06 03:00:00 20.8 4 Noroeste 9 Oeste 0 1012.4 0.4 53
2019-10-06 02:00:00 19.7 2 Sudeste 6 Sudeste 0 1012.1 0.4 72
2019-10-06 01:00:00 19.8 0 Calma 12 Este 0 1012 0.7 87
2019-10-06 00:00:00 20.3 3 Sudeste 8 Sudeste 0 1012 1.3 87
2019-10-05 23:00:00 20.7 0 Calma 9 Este 0 1011.7 1 83
2019-10-05 22:00:00 21.1 3 Sudeste 7 Sudeste 0 1011.3 1.1 83
2019-10-05 21:00:00 20.7 0 Calma 5 Este 0 1010.7 0.3 83
2019-10-05 20:00:00 21.2 4 Sudeste 8 Sudeste 0 1010.7 0.4 80
2019-10-05 19:00:00 22.4 4 Este 8 Este 0 1010.2 -0.6 71
2019-10-05 18:00:00 22.6 5 Sudeste 10 Sudeste 0 1010.4 -0.8 67
2019-10-05 17:00:00 25 5 Sudeste 9 Este 0 1010.3 -1.2 51
2019-10-05 16:00:00 23.7 5 Sudeste 11 Sur 0 1010.8 -1.1 60
2019-10-05 15:00:00 23.6 6 Sur 14 Sur 0 1011.2 -0.8 64
2019-10-05 14:00:00 23.4 7 Sur 12 Sudeste 0 1011.5 0.1 63
2019-10-05 13:00:00 23.7 7 Sur 10 Sur 0 1011.9 1.3 59
2019-10-05 12:00:00 22.3 6 Sudeste 14 Este 0 1012 1.2 60
2019-10-05 11:00:00 23 5 Este 15 Este 0 1011.4 0.7 60
2019-10-05 10:00:00 22.6 9 Este 15 Este 0 1010.6 0.2 50
2019-10-05 09:00:00 21.1 5 Norte 13 Noroeste 0 1010.8 0.3 49
2019-10-05 08:00:00 19.7 6 Noroeste 11 Noroeste 0 1010.7 0.2 54
2019-10-05 07:00:00 19.5 0 Calma 4 Sudeste 0 1010.4 -0.5 67
2019-10-05 06:00:00 19.6 2 Este 9 Noroeste 0 1010.5 -0.7 60
2019-10-05 05:00:00 18.7 4 Noroeste 9 Noroeste 0 1010.5 -0.7 64
2019-10-05 04:00:00 19.5 0 Calma 4 Sur 0 1010.9 -0.7 65
2019-10-05 03:00:00 19.8 3 Sudeste 4 Este 0 1011.2 -0.7 64
2019-10-05 02:00:00 20.3 0 Calma 11 Noroeste 0 1011.2 -0.8 60
2019-10-05 01:00:00 20.6 5 Noroeste 8 Noroeste 0 1011.6 -0.1 54
2019-10-05 00:00:00 20.3 0 Calma 4 Este 0 1011.9 0.3 71
2019-10-04 23:00:00 21 3 Sudeste 6 Sudeste 0 1012 0.7 62
2019-10-04 22:00:00 22 4 Sudoeste 7 Sudoeste 0 1011.7 0.5 54
2019-10-04 21:00:00 21.7 0 Calma 9 Sudoeste 0 1011.6 0.3 58
2019-10-04 20:00:00 22 2 Sur 6 Sudeste 0 1011.3 -0.1 61
2019-10-04 19:00:00 23.1 4 Sudeste 9 Sudeste 0 1011.2 -0.7 55
2019-10-04 18:00:00 22.8 6 Sudeste 10 Sudeste 0 1011.3 -1.2 52
2019-10-04 17:00:00 23.7 6 Sudeste 10 Sudeste 0 1011.4 -1.7 47
2019-10-04 16:00:00 25.2 5 Sudeste 10 Sur 0 1011.9 -1.4 45
2019-10-04 15:00:00 24.9 6 Sur 12 Sur 0 1012.5 -1 47
2019-10-04 14:00:00 24.5 8 Sur 13 Sur 0 1013.1 0.1 51
2019-10-04 13:00:00 24.5 8 Sur 12 Sur 0 1013.3 0.7 51
2019-10-04 12:00:00 26.1 6 Este 13 Sur 0 1013.5 0.4 32
2019-10-04 11:00:00 26.1 5 Sudeste 8 Sudeste 0 1013 0.1 32
2019-10-04 10:00:00 23.4 6 Noroeste 14 Norte 0 1012.6 -0.2 36
2019-10-04 09:00:00 21.3 6 Noroeste 15 Norte 0 1013.1 0.6 39
2019-10-04 08:00:00 20.8 5 Norte 13 Noroeste 0 1012.9 0.4 42
2019-10-04 07:00:00 20.6 7 Noroeste 14 Norte 0 1012.8 0.1 44
2019-10-04 06:00:00 20.8 5 Norte 14 Norte 0 1012.5 -0.4 47
2019-10-04 05:00:00 20.6 9 Norte 14 Norte 0 1012.5 0 55
2019-10-04 04:00:00 20.2 0 Calma 10 Sudeste 0 1012.7 0.2 80
2019-10-04 03:00:00 20.8 6 Sudeste 20 Este 0 1012.9 0.2 75
2019-10-04 02:00:00 25 6 Noroeste 22 Oeste 0 1012.5 -0.1 31
2019-10-04 01:00:00 25.2 14 Noroeste 23 Noroeste 0 1012.5 0.3 31
2019-10-04 00:00:00 25.7 9 Noroeste 21 Oeste 0 1012.7 0.9 30
2019-10-03 23:00:00 26.4 9 Oeste 25 Oeste 0 1012.6 1.2 29
2019-10-03 22:00:00 27.5 13 Noroeste 21 Noroeste 0 1012.2 0.9 28
2019-10-03 21:00:00 28.4 7 Noroeste 20 Noroeste 0 1011.8 0.5 27
2019-10-03 20:00:00 29.3 9 Noroeste 26 Sudoeste 0 1011.4 -0.2 26
2019-10-03 19:00:00 30.6 11 Oeste 28 Oeste 0 1011.3 -0.6 24
2019-10-03 18:00:00 31.1 10 Oeste 32 Oeste 0 1011.3 -0.9 25
2019-10-03 17:00:00 31.2 10 Noroeste 29 Oeste 0 1011.6 -1.2 25
2019-10-03 16:00:00 30.3 10 Noroeste 32 Noroeste 0 1011.9 -1.9 25
2019-10-03 15:00:00 30 16 Noroeste 35 Norte 0 1012.2 -2 23
2019-10-03 14:00:00 29.9 12 Oeste 28 Oeste 0 1012.8 -1.6 27
2019-10-03 13:00:00 28.5 15 Sudoeste 29 Sudoeste 0 1013.8 -0.3 32
2019-10-03 12:00:00 26.1 13 Oeste 26 Sudoeste 0 1014.2 0.8 36
2019-10-03 11:00:00 23.8 11 Oeste 22 Oeste 0 1014.4 0.9 40
2019-10-03 10:00:00 21.9 11 Oeste 17 Noroeste 0 1014.1 0.8 41
2019-10-03 09:00:00 22 8 Oeste 18 Oeste 0 1013.4 0.6 41
2019-10-03 08:00:00 21 6 Noroeste 11 Noroeste 0 1013.5 0.9 42
2019-10-03 07:00:00 21.4 6 Noroeste 12 Oeste 0 1013.3 0.8 40
2019-10-03 06:00:00 21.8 5 Oeste 13 Oeste 0 1012.8 -0.1 40
2019-10-03 05:00:00 22.4 5 Sudoeste 12 Noroeste 0 1012.6 -0.4 39
2019-10-03 04:00:00 23.5 3 Sudoeste 27 Noroeste 0 1012.5 -0.3 35
2019-10-03 03:00:00 24.4 13 Noroeste 23 Noroeste 0 1012.9 0.2 32
2019-10-03 02:00:00 24.9 10 Noroeste 18 Noroeste 0 1013 0.5 30
2019-10-03 01:00:00 25.2 8 Norte 19 Noroeste 0 1012.8 1.2 29
2019-10-03 00:00:00 25.8 7 Norte 17 Sudoeste 0 1012.7 2 28
2019-10-02 23:00:00 26.1 11 Sudoeste 18 Sudoeste 0 1012.5 2.1 27
2019-10-02 22:00:00 27.2 6 Oeste 22 Oeste 0 1011.6 1.8 24
2019-10-02 21:00:00 27.9 10 Noroeste 30 Noroeste 0 1010.7 1 23
2019-10-02 20:00:00 28.4 14 Noroeste 32 Norte 0 1010.4 0.6 23
2019-10-02 19:00:00 29.1 14 Noroeste 30 Oeste 0 1009.8 0.2 21
2019-10-02 18:00:00 31.1 12 Noroeste 39 Oeste 0 1009.7 0 21
2019-10-02 17:00:00 30.7 14 Noroeste 35 Noroeste 0 1009.8 -0.1 22
2019-10-02 16:00:00 30.6 17 Noroeste 40 Noroeste 0 1009.6 -0.8 24
2019-10-02 15:00:00 30.3 21 Noroeste 41 Oeste 0 1009.7 -1.5 23
2019-10-02 14:00:00 30.8 18 Oeste 37 Noroeste 0 1009.9 -1.4 27
2019-10-02 13:00:00 30.2 13 Oeste 31 Noroeste 0 1010.4 -0.5 30
2019-10-02 12:00:00 28.2 12 Oeste 30 Oeste 0 1011.2 0 32
2019-10-02 11:00:00 26 13 Oeste 33 Sudoeste 0 1011.3 0.1 39
2019-10-02 10:00:00 23.7 12 Oeste 26 Oeste 0 1010.9 -0.2 43
2019-10-02 09:00:00 22.6 14 Oeste 33 Oeste 0 1011.2 0.4 45
2019-10-02 08:00:00 22.3 18 Sudoeste 33 Sudoeste 0 1011.2 0.3 45
2019-10-02 07:00:00 22.7 13 Oeste 33 Oeste 0 1011.1 0.5 44
2019-10-02 06:00:00 23.3 19 Oeste 33 Noroeste 0 1010.8 -0.3 43
2019-10-02 05:00:00 24 13 Oeste 25 Oeste 0 1010.9 0.1 40
2019-10-02 04:00:00 24.6 9 Noroeste 27 Noroeste 0 1010.6 -0.4 40
2019-10-02 03:00:00 25.1 11 Oeste 29 Oeste 0 1011.1 0.7 40
2019-10-02 02:00:00 25.2 12 Oeste 30 Noroeste 0 1010.8 0.4 40
2019-10-02 01:00:00 25.8 13 Noroeste 38 Noroeste 0 1011 1.3 39
2019-10-02 00:00:00 26.6 19 Noroeste 41 Noroeste 0 1010.4 1.5 37
2019-10-01 23:00:00 27.7 15 Noroeste 33 Noroeste 0 1010.4 1.7 33
2019-10-01 22:00:00 29 12 Noroeste 34 Noroeste 0 1009.7 1.3 25
2019-10-01 21:00:00 29.8 11 Oeste 28 Oeste 0 1008.9 1 22
2019-10-01 20:00:00 30.4 12 Noroeste 33 Noroeste 0 1008.7 0.8 19
2019-10-01 19:00:00 31.1 15 Noroeste 33 Noroeste 0 1008.4 0.4 15
2019-10-01 18:00:00 32.5 14 Noroeste 37 Noroeste 0 1007.9 -0.4 14
2019-10-01 17:00:00 33 16 Noroeste 35 Noroeste 0 1007.9 -1.1 14
2019-10-01 16:00:00 33.3 15 Noroeste 33 Noroeste 0 1008 -1.6 14
2019-10-01 15:00:00 33.4 12 Noroeste 32 Noroeste 0 1008.3 -2 14
2019-10-01 14:00:00 32.4 13 Noroeste 29 Noroeste 0 1009 -1.2 15
2019-10-01 13:00:00 32.2 9 Noroeste 31 Noroeste 0 1009.6 -0.3 18
2019-10-01 12:00:00 25.7 5 Sudeste 11 Sudeste 0 1010.3 0 49
2019-10-01 11:00:00 24.6 6 Este 10 Este 0 1010.2 0.1 48
2019-10-01 10:00:00 24.9 0 Calma 7 Oeste 0 1009.9 0.3 47
2019-10-01 09:00:00 20.5 0 Calma 7 Noroeste 0 1010.3 0.4 68
2019-10-01 08:00:00 20.2 5 Sudoeste 10 Noroeste 0 1010.1 -0.1 66
2019-10-01 07:00:00 20 8 Noroeste 12 Noroeste 0 1009.6 -1.1 62
2019-10-01 06:00:00 20.2 5 Noroeste 10 Noroeste 0 1009.9 -1.2 65
2019-10-01 05:00:00 20.5 4 Norte 7 Norte 0 1010.2 -1 67
2019-10-01 04:00:00 20.8 4 Noroeste 7 Noroeste 0 1010.7 -0.3 67
2019-10-01 03:00:00 20.6 0 Calma 12 Nordeste 0 1011.1 0.2 77
2019-10-01 02:00:00 20.8 2 Nordeste 4 Este 0 1011.2 0.1 80
2019-10-01 01:00:00 21.2 2 Este 4 Este 0 1011 -0.1 80
2019-10-01 00:00:00 21.2 0 Calma 5 Este 0 1010.9 0.2 79
2019-09-30 23:00:00 21.4 0 Calma 6 Sudeste 0 1011.1 0.5 80
2019-09-30 22:00:00 21.6 0 Calma 5 Sudeste 0 1011.1 0.5 82
2019-09-30 21:00:00 21.8 2 Sudeste 6 Sudeste 0 1010.7 0.1 82
2019-09-30 20:00:00 21.7 5 Este 11 Este 0 1010.6 -0.6 80
2019-09-30 19:00:00 22.3 5 Sudeste 12 Sur 0 1010.6 -0.9 75
2019-09-30 18:00:00 23.8 5 Sudeste 13 Este 0 1010.6 -1.4 69
2019-09-30 17:00:00 23.3 9 Este 14 Este 0 1011.2 -1.6 73
2019-09-30 16:00:00 23 8 Sur 12 Sudeste 0 1011.5 -1.7 71
2019-09-30 15:00:00 23.3 8 Sudeste 13 Sudeste 0 1012 -1.5 69
2019-09-30 14:00:00 23.4 7 Sudeste 12 Sur 0 1012.8 -0.2 69
2019-09-30 13:00:00 23.5 8 Sur 11 Sur 0 1013.2 0.6 67
2019-09-30 12:00:00 23.1 6 Sur 13 Sur 0 1013.5 0.6 67
2019-09-30 11:00:00 23.9 5 Sur 9 Sur 0 1013 0.1 56
2019-09-30 10:00:00 25.1 2 Sudeste 8 Norte 0 1012.6 0.1 45
2019-09-30 09:00:00 21.8 0 Calma 4 Este 0 1012.9 0.5 61
2019-09-30 08:00:00 20.3 3 Norte 8 Norte 0 1012.9 0.4 60
2019-09-30 07:00:00 20.4 4 Noroeste 9 Noroeste 0 1012.5 -0.6 62
2019-09-30 06:00:00 20.3 4 Noroeste 6 Noroeste 0 1012.4 -1.2 65
2019-09-30 05:00:00 20.5 2 Noroeste 8 Norte 0 1012.5 -1.3 64
2019-09-30 04:00:00 20.5 4 Noroeste 9 Noroeste 0 1013.1 -0.7 64
2019-09-30 03:00:00 20.3 4 Noroeste 6 Noroeste 0 1013.6 -0.3 75
2019-09-30 02:00:00 20.8 0 Calma 9 Noroeste 0 1013.8 0 77
2019-09-30 01:00:00 20.5 4 Norte 8 Este 0 1013.8 0.2 84
2019-09-30 00:00:00 21.2 3 Este 6 Sudeste 0 1013.9 0.7 84
2019-09-29 23:00:00 21.4 4 Sudeste 6 Sudeste 0 1013.8 0.9 84
2019-09-29 22:00:00 21.6 0 Calma 5 Este 0 1013.6 0.7 83
2019-09-29 21:00:00 21.8 2 Este 9 Sudeste 0 1013.2 0.1 83
2019-09-29 20:00:00 22.5 3 Sudeste 8 Sur 0 1012.9 -0.7 78
2019-09-29 19:00:00 23.5 4 Sudeste 10 Sudeste 0 1012.9 -0.9 70
2019-09-29 18:00:00 24 6 Sudeste 10 Sudeste 0 1013.1 -1.3 65
2019-09-29 17:00:00 24.4 7 Sudeste 12 Sudeste 0 1013.6 -1.8 64
2019-09-29 16:00:00 24.1 8 Sudeste 12 Sudeste 0 1013.8 -1.9 62
2019-09-29 15:00:00 23.8 8 Sudeste 10 Sudeste 0 1014.4 -1.4 63
2019-09-29 14:00:00 24.2 7 Sudeste 10 Sudeste 0 1015.4 -0.1 61
2019-09-29 13:00:00 25.8 5 Sudeste 9 Sudeste 0 1015.7 1 55
2019-09-29 12:00:00 26.2 3 Este 9 Sudeste 0 1015.8 1.1 50
2019-09-29 11:00:00 24.7 5 Sur 9 Sudeste 0 1015.5 1.3 52
2019-09-29 10:00:00 25.9 0 Calma 8 Nordeste 0 1014.7 0.7 42
2019-09-29 09:00:00 21.1 4 Nordeste 6 Nordeste 0 1014.7 0.4 55
2019-09-29 08:00:00 20.1 4 Oeste 17 Noroeste 0 1014.2 -0.4 59
2019-09-29 07:00:00 19.9 10 Noroeste 17 Noroeste 0 1014 -1.1 56
2019-09-29 06:00:00 20 9 Noroeste 17 Norte 0 1014.3 -1.2 56
2019-09-29 05:00:00 20.2 11 Noroeste 14 Noroeste 0 1014.6 -0.9 57
2019-09-29 04:00:00 20.7 9 Noroeste 14 Norte 0 1015.1 -0.6 57
2019-09-29 03:00:00 20.7 6 Norte 15 Norte 0 1015.5 0 61
2019-09-29 02:00:00 20.8 6 Norte 12 Noroeste 0 1015.5 0 63
2019-09-29 01:00:00 21.2 2 Noroeste 6 Norte 0 1015.7 0.6 70
2019-09-29 00:00:00 20.5 3 Norte 6 Nordeste 0 1015.5 1.1 85
2019-09-28 23:00:00 21.6 3 Este 5 Este 0 1015.5 1.4 86
2019-09-28 22:00:00 21.6 0 Calma 5 Sudeste 0 1015.1 1.4 85
2019-09-28 21:00:00 21.8 3 Este 7 Este 0 1014.4 0.8 83
2019-09-28 20:00:00 22.2 5 Este 8 Este 0 1014.1 0 78
2019-09-28 19:00:00 22.8 5 Este 9 Este 0 1013.7 -0.9 73
2019-09-28 18:00:00 23.2 5 Sudeste 9 Este 0 1013.6 -1.6 69
2019-09-28 17:00:00 23.4 5 Sudeste 9 Este 0 1014.1 -1.6 67
2019-09-28 16:00:00 23.4 5 Sudeste 13 Este 0 1014.6 -1.4 67
2019-09-28 15:00:00 21.5 8 Sudeste 12 Sudeste 0 1015.2 -0.9 75
2019-09-28 14:00:00 22 8 Sudeste 13 Sudeste 0 1015.7 -0.3 71
2019-09-28 13:00:00 22.9 6 Sudeste 13 Sudeste 0 1016 0.7 66
2019-09-28 12:00:00 22.9 5 Este 11 Este 0 1016.1 1.3 68
2019-09-28 11:00:00 19.8 5 Sudeste 10 Sur 0 1016 1.7 88
2019-09-28 10:00:00 19.2 4 Sudeste 10 Sur 0 1015.3 1.7 88
2019-09-28 09:00:00 19.5 5 Sudoeste 10 Sudoeste 0 1014.8 1.3 88
2019-09-28 08:00:00 19.9 2 Oeste 8 Sudoeste 0 1014.3 0.8 79
2019-09-28 07:00:00 20 3 Noroeste 9 Noroeste 0 1013.6 -0.3 60
2019-09-28 06:00:00 20.1 3 Norte 12 Noroeste 0 1013.5 -0.6 60
2019-09-28 05:00:00 20 7 Noroeste 11 Noroeste 0 1013.5 -1.1 63
2019-09-28 04:00:00 20 3 Noroeste 10 Noroeste 0 1013.9 -1.1 72
2019-09-28 03:00:00 20.4 4 Noroeste 7 Noroeste 0 1014.1 -0.9 78
2019-09-28 02:00:00 21 0 Calma 4 Este 0 1014.6 0 87
2019-09-28 01:00:00 21.3 0 Calma 7 Este 0 1015 0.9 86
2019-09-28 00:00:00 21.5 5 Este 10 Este 0 1015 1.5 85
2019-09-27 23:00:00 21.7 6 Este 10 Este 0 1014.6 1.5 84
2019-09-27 22:00:00 21.8 4 Este 8 Este 0 1014.1 1.5 83
2019-09-27 21:00:00 21.8 3 Este 7 Sudeste 0 1013.5 0.7 82
2019-09-27 20:00:00 22.2 4 Sudeste 10 Sur 0 1013.1 -0.1 78
2019-09-27 19:00:00 23.2 5 Sudeste 10 Sur 0 1012.6 -0.9 71
2019-09-27 18:00:00 24.3 5 Sur 11 Este 0 1012.8 -1.5 66
2019-09-27 17:00:00 24.2 6 Sur 25 Sur 0 1013.2 -1.8 66
2019-09-27 16:00:00 24.1 7 Sudeste 13 Sur 0 1013.5 -1.8 66
2019-09-27 15:00:00 23.9 6 Sudeste 12 Sudeste 0 1014.3 -1.1 67
2019-09-27 14:00:00 23.6 6 Sudeste 13 Sudeste 0 1015 0 68
2019-09-27 13:00:00 22.6 7 Sudeste 15 Sur 0 1015.3 1 69
2019-09-27 12:00:00 23.1 9 Sur 17 Sur 0 1015.4 0.9 71
2019-09-27 11:00:00 23.7 11 Sur 16 Sur 0 1015 0.4 62
2019-09-27 10:00:00 25 0 Calma 10 Norte 0 1014.3 -0.1 53
2019-09-27 09:00:00 21.6 5 Norte 10 Noroeste 0 1014.5 0 62
2019-09-27 08:00:00 20.4 5 Noroeste 11 Norte 0 1014.6 0.2 68
2019-09-27 07:00:00 20.4 3 Norte 12 Noroeste 0 1014.4 -0.3 70
2019-09-27 06:00:00 20.6 9 Noroeste 14 Norte 0 1014.5 -0.6 68
2019-09-27 05:00:00 20.9 6 Noroeste 13 Norte 0 1014.4 -0.9 68
2019-09-27 04:00:00 21.1 5 Norte 14 Norte 0 1014.7 -0.7 69
2019-09-27 03:00:00 21.4 5 Noroeste 13 Norte 0 1015.1 -0.2 70
2019-09-27 02:00:00 21.5 9 Noroeste 14 Noroeste 0 1015.3 0.3 73
2019-09-27 01:00:00 21.7 3 Noroeste 8 Noroeste 0 1015.4 1.1 78
2019-09-27 00:00:00 21.8 0 Calma 5 Sudeste 0 1015.3 1.6 83
2019-09-26 23:00:00 22.3 4 Sudeste 8 Este 0 1015 1.6 81
2019-09-26 22:00:00 22.4 4 Este 10 Este 0 1014.3 1.1 82
2019-09-26 21:00:00 22.6 5 Este 8 Este 0 1013.7 0.5 81
2019-09-26 20:00:00 23 3 Este 7 Este 0 1013.4 0 76
2019-09-26 19:00:00 24.3 4 Sudeste 8 Sudeste 0 1013.2 -0.7 70
2019-09-26 18:00:00 24.9 4 Sudeste 9 Este 0 1013.2 -1 67
2019-09-26 17:00:00 24.2 5 Sudeste 12 Sudeste 0 1013.4 -1.3 69
2019-09-26 16:00:00 25.3 5 Sudeste 12 Sudeste 0 1013.9 -1.4 68
2019-09-26 15:00:00 24.3 8 Sudeste 13 Sudeste 0 1014.2 -1.1 68
2019-09-26 14:00:00 24.9 6 Sudeste 13 Sudeste 0 1014.7 0.1 64
2019-09-26 13:00:00 24.3 9 Sudeste 14 Sudeste 0 1015.3 1.5 64
2019-09-26 12:00:00 24.9 10 Sur 14 Sur 0 1015.3 1.8 61
2019-09-26 11:00:00 24.7 6 Sudeste 12 Sudeste 0 1014.6 1.1 44
2019-09-26 10:00:00 27.4 0 Calma 14 Noroeste 0 1013.8 0.8 36
2019-09-26 09:00:00 22.5 6 Norte 16 Noroeste 0 1013.5 0.9 44
2019-09-26 08:00:00 21.3 8 Noroeste 16 Noroeste 0 1013.5 1 44
2019-09-26 07:00:00 21.8 9 Norte 18 Noroeste 0 1013 0.9 43
2019-09-26 06:00:00 21.9 9 Noroeste 17 Noroeste 0 1012.6 0.6 41
2019-09-26 05:00:00 22.1 10 Noroeste 18 Norte 0 1012.5 0.7 40
2019-09-26 04:00:00 20.9 8 Noroeste 15 Noroeste 0 1012.1 1 60
2019-09-26 03:00:00 21.8 4 Sudeste 23 Nordeste 0 1012 1.1 80
2019-09-26 02:00:00 23.5 18 Este 37 Este 0 1011.8 1.2 61
2019-09-26 01:00:00 26.3 10 Oeste 24 Sudoeste 0 1011.1 0.9 28
2019-09-26 00:00:00 27.1 10 Oeste 22 Oeste 0 1010.9 1.3 28
2019-09-25 23:00:00 27.9 10 Oeste 25 Oeste 0 1010.6 1.6 27
2019-09-25 22:00:00 28.9 13 Oeste 27 Noroeste 0 1010.2 1.4 27
2019-09-25 21:00:00 29.6 13 Noroeste 28 Noroeste 0 1009.6 0.8 25
2019-09-25 20:00:00 30.7 9 Noroeste 30 Noroeste 0 1009 0 23
2019-09-25 19:00:00 31.9 16 Noroeste 33 Noroeste 0 1008.8 -0.3 22
2019-09-25 18:00:00 32.6 15 Noroeste 34 Noroeste 0 1008.8 -1 22
2019-09-25 17:00:00 33.1 15 Noroeste 35 Oeste 0 1009 -1.4 21
2019-09-25 16:00:00 33.9 10 Oeste 35 Oeste 0 1009.1 -2 22
2019-09-25 15:00:00 32.5 14 Oeste 31 Oeste 0 1009.8 -2.1 24
2019-09-25 14:00:00 32.6 12 Oeste 33 Oeste 0 1010.4 -1.3 27
2019-09-25 13:00:00 30.6 11 Oeste 29 Oeste 0 1011.1 -0.2 35
2019-09-25 12:00:00 29 13 Oeste 27 Oeste 0 1011.9 0.5 43
2019-09-25 11:00:00 28.4 9 Oeste 22 Oeste 0 1011.7 0.3 44
2019-09-25 10:00:00 25.8 11 Oeste 24 Sudoeste 0 1011.3 -0.3 48
2019-09-25 09:00:00 24.3 5 Oeste 22 Oeste 0 1011.4 -0.2 50
2019-09-25 08:00:00 23.4 7 Oeste 25 Oeste 0 1011.4 0 49
2019-09-25 07:00:00 23.2 11 Oeste 32 Oeste 0 1011.6 0.3 49
2019-09-25 06:00:00 23.8 18 Oeste 31 Oeste 0 1011.6 0.1 45
2019-09-25 05:00:00 24.3 14 Oeste 30 Oeste 0 1011.4 -0.4 41
2019-09-25 04:00:00 25.3 18 Oeste 35 Oeste 0 1011.3 -0.8 36
2019-09-25 03:00:00 26.1 10 Oeste 24 Oeste 0 1011.5 -0.7 34
2019-09-25 02:00:00 27.2 12 Noroeste 21 Noroeste 0 1011.8 -0.7 31
2019-09-25 01:00:00 27 10 Noroeste 18 Noroeste 0 1012.1 -0.4 32
2019-09-25 00:00:00 23.4 8 Noroeste 14 Norte 0 1012.2 0 47
2019-09-24 23:00:00 21.5 5 Noroeste 11 Noroeste 0 1012.5 0.5 76
2019-09-24 22:00:00 22 0 Calma 8 Este 0 1012.5 0.6 74
2019-09-24 21:00:00 22.3 6 Este 14 Este 0 1012.2 -0.2 64
2019-09-24 20:00:00 22.5 8 Este 16 Este 0 1012 -0.7 60
2019-09-24 19:00:00 24.1 9 Este 16 Este 0 1011.9 -1.5 50
2019-09-24 18:00:00 24.8 9 Este 20 Este 0 1012.4 -1.4 51
2019-09-24 17:00:00 24.5 10 Este 20 Este 0 1012.7 -2.1 54
2019-09-24 16:00:00 23 12 Este 20 Este 0 1013.4 -2 58
2019-09-24 15:00:00 25.7 8 Este 15 Este 0 1013.8 -1.6 54
2019-09-24 14:00:00 24.4 7 Sudeste 19 Sur 0 1014.8 -0.5 58
2019-09-24 13:00:00 23.9 10 Sudeste 17 Sudeste 0 1015.4 0.5 56
2019-09-24 12:00:00 25.2 10 Sur 21 Sudoeste 0 1015.4 0.3 42
2019-09-24 11:00:00 24.7 10 Sudoeste 15 Sudoeste 0 1015.3 -0.2 41
2019-09-24 10:00:00 22.6 6 Oeste 14 Oeste 0 1014.9 -0.4 45
2019-09-24 09:00:00 20.8 8 Noroeste 16 Noroeste 0 1015.1 -0.3 50
2019-09-24 08:00:00 19.7 3 Norte 10 Noroeste 0 1015.5 0.1 52
2019-09-24 07:00:00 19.8 10 Noroeste 15 Norte 0 1015.3 -0.3 52
2019-09-24 06:00:00 19.7 9 Noroeste 15 Noroeste 0 1015.4 -0.6 52
2019-09-24 05:00:00 19.9 7 Noroeste 16 Norte 0 1015.4 -0.5 52
2019-09-24 04:00:00 20.1 7 Noroeste 13 Norte 0 1015.6 -0.6 52
2019-09-24 03:00:00 20.4 6 Noroeste 14 Norte 0 1016 -0.2 52
2019-09-24 02:00:00 20.7 6 Noroeste 12 Noroeste 0 1015.9 -0.2 52
2019-09-24 01:00:00 20.9 0 Calma 4 Noroeste 0 1016.2 0.5 60
2019-09-24 00:00:00 21.3 0 Calma 6 Sudeste 0 1016.2 1.2 60
2019-09-23 23:00:00 21.5 0 Calma 7 Sudeste 0 1016.1 1.6 63
2019-09-23 22:00:00 22.1 3 Sudeste 6 Sudeste 0 1015.7 1.5 61
2019-09-23 21:00:00 22.2 0 Calma 6 Sudeste 0 1015 0.7 61
2019-09-23 20:00:00 22.6 2 Este 7 Sudeste 0 1014.5 0.3 63
2019-09-23 19:00:00 23.7 5 Sur 10 Sudeste 0 1014.2 -0.3 62
2019-09-23 18:00:00 23.9 6 Sudeste 11 Sudeste 0 1014.3 -0.4 58
2019-09-23 17:00:00 24.3 7 Sur 10 Sur 0 1014.2 -0.7 52
2019-09-23 16:00:00 24.8 5 Sur 14 Sudeste 0 1014.5 -0.5 55
2019-09-23 15:00:00 24.4 9 Sudeste -- -- -- 1014.7 -0.2 55
2019-09-23 14:00:00 24.4 10 Sur 18 Sur 0 1014.9 0.4 62
2019-09-23 13:00:00 25.2 10 Sur 19 Oeste 0 1015 0.8 50
2019-09-23 12:00:00 27.2 6 Oeste 22 Sudoeste 0 1014.9 0.6 38
2019-09-23 11:00:00 24.6 8 Oeste 21 Oeste 0 1014.5 0.3 44
2019-09-23 10:00:00 23.2 6 Oeste 21 Noroeste 0 1014.2 0.7 48
2019-09-23 09:00:00 20.8 12 Noroeste 22 Oeste 0 1014.3 1.2 54
2019-09-23 08:00:00 20.1 12 Noroeste 25 Oeste 0 1014.2 1.5 55
2019-09-23 07:00:00 20.2 11 Oeste 25 Oeste 0 1013.5 0.9 55
2019-09-23 06:00:00 20.8 15 Oeste 26 Oeste 0 1013.1 0.1 52
2019-09-23 05:00:00 21.3 14 Oeste 27 Oeste 0 1012.7 -0.4 49
2019-09-23 04:00:00 21.9 12 Oeste 26 Oeste 0 1012.6 -0.5 46
2019-09-23 03:00:00 22.5 15 Oeste 23 Oeste 0 1013 0.1 44
2019-09-23 02:00:00 22.8 9 Oeste 21 Oeste 0 1013.1 0.4 42
2019-09-23 01:00:00 23.5 13 Oeste 21 Oeste 0 1013.1 1.1 38
2019-09-23 00:00:00 24.2 7 Oeste 21 Noroeste 0 1012.9 1.7 36
2019-09-22 23:00:00 25 11 Noroeste 20 Oeste 0 1012.7 2.1 34
2019-09-22 22:00:00 25.5 10 Noroeste 20 Noroeste 0 1012 1.8 31
2019-09-22 21:00:00 26.2 10 Noroeste 22 Noroeste 0 1011.2 1.3 29
2019-09-22 20:00:00 27.1 12 Noroeste 28 Noroeste 0 1010.6 0.8 30
2019-09-22 19:00:00 27.3 3 Este 26 Sudoeste 0 1010.2 0.4 51
2019-09-22 18:00:00 24.6 19 Sudoeste 34 Sudoeste 0 1009.9 -0.1 63
2019-09-22 17:00:00 26.1 10 Sur 30 Sudoeste 0 1009.8 -0.8 59
2019-09-22 16:00:00 25.8 15 Sur 34 Sudoeste 0 1009.8 -1 59
2019-09-22 15:00:00 25.6 22 Sudoeste 33 Sudoeste 0 1010 -1 61
2019-09-22 14:00:00 24.2 29 Sudoeste 38 Sudoeste 0 1010.6 -0.3 64
2019-09-22 13:00:00 25.6 15 Sudoeste 20 Sudoeste 0 1010.8 0.1 55
2019-09-22 12:00:00 25.3 10 Sur 15 Sur 0 1011 0.5 55
2019-09-22 11:00:00 25.6 3 Sur 10 Sur 0 1010.9 0.2 53
2019-09-22 10:00:00 23.8 5 Sudoeste 13 Noroeste 0 1010.7 0.5 60
2019-09-22 09:00:00 21.5 6 Norte 14 Norte 0 1010.5 0.6 64
2019-09-22 08:00:00 20.6 6 Noroeste 10 Noroeste 0 1010.7 0.7 68
2019-09-22 07:00:00 20.8 2 Noroeste 12 Norte 0 1010.2 -0.1 68
2019-09-22 06:00:00 20.9 5 Norte 13 Norte 0 1009.9 -0.4 71
2019-09-22 05:00:00 21.1 5 Norte 14 Norte 0 1010 -0.5 71
2019-09-22 04:00:00 21.6 5 Norte 8 Norte 0 1010.3 0.1 72
2019-09-22 03:00:00 21.8 3 Este 6 Este 0 1010.3 0 76
2019-09-22 02:00:00 22.3 0 Calma 6 Este 0 1010.5 0.2 72
2019-09-22 01:00:00 22.6 3 Este 11 Este 0 1010.2 0 69
2019-09-22 00:00:00 22.6 4 Este 9 Nordeste 0 1010.3 0.7 70